sensor_id;sensor_type;location;lat;lon;timestamp;pressure;altitude;pressure_sealevel;temperature
48628;BMP280;34424;52.234;6.500;2023-08-06T00:03:59;100435.1;;;12.54
48628;BMP280;34424;52.234;6.500;2023-08-06T00:08:59;100442.2;;;12.47
48628;BMP280;34424;52.234;6.500;2023-08-06T00:13:59;100437.2;;;12.4
48628;BMP280;34424;52.234;6.500;2023-08-06T00:18:59;100435.5;;;12.38
48628;BMP280;34424;52.234;6.500;2023-08-06T00:23:59;100435.8;;;12.37
48628;BMP280;34424;52.234;6.500;2023-08-06T00:28:59;100436.6;;;12.4
48628;BMP280;34424;52.234;6.500;2023-08-06T00:33:59;100437.1;;;12.44
48628;BMP280;34424;52.234;6.500;2023-08-06T00:38:59;100438.2;;;12.53
48628;BMP280;34424;52.234;6.500;2023-08-06T00:43:59;100431.1;;;12.51
48628;BMP280;34424;52.234;6.500;2023-08-06T00:48:59;100422.4;;;12.5
48628;BMP280;34424;52.234;6.500;2023-08-06T00:53:59;100430.9;;;12.53
48628;BMP280;34424;52.234;6.500;2023-08-06T00:58:59;100428.1;;;12.57
48628;BMP280;34424;52.234;6.500;2023-08-06T01:03:59;100432.8;;;12.55
48628;BMP280;34424;52.234;6.500;2023-08-06T01:09:01;100435;;;12.58
48628;BMP280;34424;52.234;6.500;2023-08-06T01:14:02;100428.5;;;12.57
48628;BMP280;34424;52.234;6.500;2023-08-06T01:18:59;100410.8;;;12.52
48628;BMP280;34424;52.234;6.500;2023-08-06T01:23:59;100412;;;12.57
48628;BMP280;34424;52.234;6.500;2023-08-06T01:28:59;100412.6;;;12.56
48628;BMP280;34424;52.234;6.500;2023-08-06T01:33:59;100403.7;;;12.47
48628;BMP280;34424;52.234;6.500;2023-08-06T01:38:59;100405.5;;;12.48
48628;BMP280;34424;52.234;6.500;2023-08-06T01:43:59;100403.3;;;12.49
48628;BMP280;34424;52.234;6.500;2023-08-06T01:48:59;100405.1;;;12.44
48628;BMP280;34424;52.234;6.500;2023-08-06T01:53:59;100394.9;;;12.36
48628;BMP280;34424;52.234;6.500;2023-08-06T01:58:59;100397;;;12.3
48628;BMP280;34424;52.234;6.500;2023-08-06T02:03:59;100391.9;;;12.24
48628;BMP280;34424;52.234;6.500;2023-08-06T02:08:59;100387.7;;;12.21
48628;BMP280;34424;52.234;6.500;2023-08-06T02:13:59;100390.6;;;12.28
48628;BMP280;34424;52.234;6.500;2023-08-06T02:18:59;100391.5;;;12.3
48628;BMP280;34424;52.234;6.500;2023-08-06T02:23:59;100386.6;;;12.37
48628;BMP280;34424;52.234;6.500;2023-08-06T02:28:59;100382.8;;;12.39
48628;BMP280;34424;52.234;6.500;2023-08-06T02:33:59;100375.8;;;12.44
48628;BMP280;34424;52.234;6.500;2023-08-06T02:38:59;100370.7;;;12.44
48628;BMP280;34424;52.234;6.500;2023-08-06T02:43:59;100362.2;;;12.43
48628;BMP280;34424;52.234;6.500;2023-08-06T02:48:59;100363.7;;;12.41
48628;BMP280;34424;52.234;6.500;2023-08-06T02:53:59;100365;;;12.39
48628;BMP280;34424;52.234;6.500;2023-08-06T02:58:59;100357.5;;;12.37
48628;BMP280;34424;52.234;6.500;2023-08-06T03:03:59;100351;;;12.37
48628;BMP280;34424;52.234;6.500;2023-08-06T03:08:59;100348.7;;;12.34
48628;BMP280;34424;52.234;6.500;2023-08-06T03:13:59;100345.4;;;12.32
48628;BMP280;34424;52.234;6.500;2023-08-06T03:18:59;100345.6;;;12.31
48628;BMP280;34424;52.234;6.500;2023-08-06T03:23:59;100350.2;;;12.29
48628;BMP280;34424;52.234;6.500;2023-08-06T03:28:59;100350.3;;;12.27
48628;BMP280;34424;52.234;6.500;2023-08-06T03:33:59;100352.6;;;12.23
48628;BMP280;34424;52.234;6.500;2023-08-06T03:38:59;100357.9;;;12.26
48628;BMP280;34424;52.234;6.500;2023-08-06T03:43:59;100355.8;;;12.24
48628;BMP280;34424;52.234;6.500;2023-08-06T03:48:59;100355.5;;;12.28
48628;BMP280;34424;52.234;6.500;2023-08-06T03:53:59;100354.1;;;12.26
48628;BMP280;34424;52.234;6.500;2023-08-06T03:58:59;100357;;;12.23
48628;BMP280;34424;52.234;6.500;2023-08-06T04:03:59;100356.9;;;12.24
48628;BMP280;34424;52.234;6.500;2023-08-06T04:08:59;100350.2;;;12.27
48628;BMP280;34424;52.234;6.500;2023-08-06T04:13:59;100348.8;;;12.3
48628;BMP280;34424;52.234;6.500;2023-08-06T04:18:59;100341.4;;;12.31
48628;BMP280;34424;52.234;6.500;2023-08-06T04:23:59;100350;;;12.38
48628;BMP280;34424;52.234;6.500;2023-08-06T04:28:59;100356;;;12.46
48628;BMP280;34424;52.234;6.500;2023-08-06T04:33:59;100352.7;;;12.53
48628;BMP280;34424;52.234;6.500;2023-08-06T04:38:59;100354.9;;;12.55
48628;BMP280;34424;52.234;6.500;2023-08-06T04:44:00;100353;;;12.6
48628;BMP280;34424;52.234;6.500;2023-08-06T04:48:59;100352.4;;;12.69
48628;BMP280;34424;52.234;6.500;2023-08-06T04:54:00;100354.8;;;12.71
48628;BMP280;34424;52.234;6.500;2023-08-06T04:58:59;100350.9;;;12.77
48628;BMP280;34424;52.234;6.500;2023-08-06T05:03:59;100356.8;;;12.86
48628;BMP280;34424;52.234;6.500;2023-08-06T05:08:59;100363;;;12.94
48628;BMP280;34424;52.234;6.500;2023-08-06T05:13:59;100365.1;;;13.04
48628;BMP280;34424;52.234;6.500;2023-08-06T05:18:59;100366;;;13.14
48628;BMP280;34424;52.234;6.500;2023-08-06T05:23:59;100364.9;;;13.23
48628;BMP280;34424;52.234;6.500;2023-08-06T05:28:59;100371.2;;;13.34
48628;BMP280;34424;52.234;6.500;2023-08-06T05:33:59;100370.7;;;13.57
48628;BMP280;34424;52.234;6.500;2023-08-06T05:38:59;100376.3;;;13.86
48628;BMP280;34424;52.234;6.500;2023-08-06T05:43:59;100385.9;;;14.06
48628;BMP280;34424;52.234;6.500;2023-08-06T05:48:59;100384.9;;;14.33
48628;BMP280;34424;52.234;6.500;2023-08-06T05:53:59;100387.9;;;14.82
48628;BMP280;34424;52.234;6.500;2023-08-06T05:58:59;100392.8;;;15.15
48628;BMP280;34424;52.234;6.500;2023-08-06T06:03:59;100396;;;15.5
48628;BMP280;34424;52.234;6.500;2023-08-06T06:08:59;100399;;;15.91
48628;BMP280;34424;52.234;6.500;2023-08-06T06:13:59;100398.2;;;16.1
48628;BMP280;34424;52.234;6.500;2023-08-06T06:18:59;100400.5;;;16.56
48628;BMP280;34424;52.234;6.500;2023-08-06T06:23:59;100403.9;;;16.65
48628;BMP280;34424;52.234;6.500;2023-08-06T06:28:59;100404.8;;;16.44
48628;BMP280;34424;52.234;6.500;2023-08-06T06:33:59;100412;;;16.25
48628;BMP280;34424;52.234;6.500;2023-08-06T06:38:59;100413.1;;;16.36
48628;BMP280;34424;52.234;6.500;2023-08-06T06:43:59;100412.8;;;16.29
48628;BMP280;34424;52.234;6.500;2023-08-06T06:48:59;100417.7;;;16.04
48628;BMP280;34424;52.234;6.500;2023-08-06T06:53:59;100421.4;;;16.17
48628;BMP280;34424;52.234;6.500;2023-08-06T06:58:59;100420.9;;;16.46
48628;BMP280;34424;52.234;6.500;2023-08-06T07:03:59;100421.7;;;16.83
48628;BMP280;34424;52.234;6.500;2023-08-06T07:08:59;100426.6;;;16.71
48628;BMP280;34424;52.234;6.500;2023-08-06T07:13:59;100421.9;;;16.82
48628;BMP280;34424;52.234;6.500;2023-08-06T07:18:59;100422.6;;;17.19
48628;BMP280;34424;52.234;6.500;2023-08-06T07:23:59;100424.3;;;18.13
48628;BMP280;34424;52.234;6.500;2023-08-06T07:28:59;100430.4;;;18.46
48628;BMP280;34424;52.234;6.500;2023-08-06T07:33:59;100433.2;;;18.4
48628;BMP280;34424;52.234;6.500;2023-08-06T07:38:59;100435.2;;;18.3
48628;BMP280;34424;52.234;6.500;2023-08-06T07:43:59;100441;;;17.89
48628;BMP280;34424;52.234;6.500;2023-08-06T07:48:59;100442.7;;;17.6
48628;BMP280;34424;52.234;6.500;2023-08-06T07:53:59;100435.5;;;17.28
48628;BMP280;34424;52.234;6.500;2023-08-06T07:58:59;100434.8;;;17.05
48628;BMP280;34424;52.234;6.500;2023-08-06T08:03:59;100435.9;;;16.91
48628;BMP280;34424;52.234;6.500;2023-08-06T08:08:59;100438.1;;;16.76
48628;BMP280;34424;52.234;6.500;2023-08-06T08:13:59;100438.4;;;16.7
48628;BMP280;34424;52.234;6.500;2023-08-06T08:18:59;100437.5;;;16.88
48628;BMP280;34424;52.234;6.500;2023-08-06T08:23:59;100442.7;;;16.99
48628;BMP280;34424;52.234;6.500;2023-08-06T08:28:59;100438;;;17.41
48628;BMP280;34424;52.234;6.500;2023-08-06T08:33:59;100438.9;;;17.62
48628;BMP280;34424;52.234;6.500;2023-08-06T08:38:59;100435.5;;;17.9
48628;BMP280;34424;52.234;6.500;2023-08-06T08:43:59;100442.1;;;19.28
48628;BMP280;34424;52.234;6.500;2023-08-06T08:48:59;100443.4;;;20.02
48628;BMP280;34424;52.234;6.500;2023-08-06T08:53:59;100445.5;;;19.32
48628;BMP280;34424;52.234;6.500;2023-08-06T08:58:59;100445.9;;;18.77
48628;BMP280;34424;52.234;6.500;2023-08-06T09:03:59;100450;;;18.37
48628;BMP280;34424;52.234;6.500;2023-08-06T09:09:01;100451.1;;;18.69
48628;BMP280;34424;52.234;6.500;2023-08-06T09:13:59;100452.6;;;18.61
48628;BMP280;34424;52.234;6.500;2023-08-06T09:19:00;100455;;;18.92
48628;BMP280;34424;52.234;6.500;2023-08-06T09:23:59;100458.5;;;19.09
48628;BMP280;34424;52.234;6.500;2023-08-06T09:28:59;100464.1;;;19.47
48628;BMP280;34424;52.234;6.500;2023-08-06T09:33:59;100471.6;;;19.52
48628;BMP280;34424;52.234;6.500;2023-08-06T09:38:59;100467.6;;;19.8
48628;BMP280;34424;52.234;6.500;2023-08-06T09:43:59;100472;;;21.29
48628;BMP280;34424;52.234;6.500;2023-08-06T09:48:59;100470;;;23.16
48628;BMP280;34424;52.234;6.500;2023-08-06T09:53:59;100468.6;;;24.57
48628;BMP280;34424;52.234;6.500;2023-08-06T09:58:59;100473.9;;;24.06
48628;BMP280;34424;52.234;6.500;2023-08-06T10:03:59;100478;;;22.79
48628;BMP280;34424;52.234;6.500;2023-08-06T10:08:59;100478.7;;;24.15
48628;BMP280;34424;52.234;6.500;2023-08-06T10:14:02;100479.2;;;23.93
48628;BMP280;34424;52.234;6.500;2023-08-06T10:18:59;100474.9;;;23.78
48628;BMP280;34424;52.234;6.500;2023-08-06T10:23:59;100472.8;;;23.51
48628;BMP280;34424;52.234;6.500;2023-08-06T10:28:59;100472.7;;;23.78
48628;BMP280;34424;52.234;6.500;2023-08-06T10:33:59;100470.4;;;22.5
48628;BMP280;34424;52.234;6.500;2023-08-06T10:38:59;100469.5;;;21.04
48628;BMP280;34424;52.234;6.500;2023-08-06T10:44:09;100471.6;;;20.49
48628;BMP280;34424;52.234;6.500;2023-08-06T10:48:59;100470;;;20.13
48628;BMP280;34424;52.234;6.500;2023-08-06T10:53:59;100470.4;;;19.96
48628;BMP280;34424;52.234;6.500;2023-08-06T10:58:59;100469.9;;;19.34
48628;BMP280;34424;52.234;6.500;2023-08-06T11:04:01;100468;;;18.86
48628;BMP280;34424;52.234;6.500;2023-08-06T11:08:59;100471.2;;;18.83
48628;BMP280;34424;52.234;6.500;2023-08-06T11:13:59;100475.2;;;18.37
48628;BMP280;34424;52.234;6.500;2023-08-06T11:18:59;100476.4;;;18.08
48628;BMP280;34424;52.234;6.500;2023-08-06T11:23:59;100478.3;;;17.98
48628;BMP280;34424;52.234;6.500;2023-08-06T11:28:59;100471.5;;;18.1
48628;BMP280;34424;52.234;6.500;2023-08-06T11:33:59;100473.9;;;17.77
48628;BMP280;34424;52.234;6.500;2023-08-06T11:38:59;100475;;;17.72
48628;BMP280;34424;52.234;6.500;2023-08-06T11:43:59;100488.3;;;17.61
48628;BMP280;34424;52.234;6.500;2023-08-06T11:48:59;100491;;;17.7
48628;BMP280;34424;52.234;6.500;2023-08-06T11:53:59;100493.3;;;17.67
48628;BMP280;34424;52.234;6.500;2023-08-06T11:58:59;100488.8;;;17.45
48628;BMP280;34424;52.234;6.500;2023-08-06T12:04:02;100481.3;;;17.6
48628;BMP280;34424;52.234;6.500;2023-08-06T12:08:59;100478.3;;;17.77
48628;BMP280;34424;52.234;6.500;2023-08-06T12:13:59;100481;;;18.05
48628;BMP280;34424;52.234;6.500;2023-08-06T12:18:59;100480.4;;;18.48
48628;BMP280;34424;52.234;6.500;2023-08-06T12:23:59;100480.1;;;18.82
48628;BMP280;34424;52.234;6.500;2023-08-06T12:28:59;100482;;;19.25
48628;BMP280;34424;52.234;6.500;2023-08-06T12:33:59;100482.2;;;19.42
48628;BMP280;34424;52.234;6.500;2023-08-06T12:38:59;100484;;;19.78
48628;BMP280;34424;52.234;6.500;2023-08-06T12:43:59;100486.7;;;20.28
48628;BMP280;34424;52.234;6.500;2023-08-06T12:48:59;100488.5;;;20.8
48628;BMP280;34424;52.234;6.500;2023-08-06T12:54:00;100483.7;;;21.06
48628;BMP280;34424;52.234;6.500;2023-08-06T12:58:59;100483;;;21.19
48628;BMP280;34424;52.234;6.500;2023-08-06T13:03:59;100488;;;21.22
48628;BMP280;34424;52.234;6.500;2023-08-06T13:09:00;100494.6;;;21.79
48628;BMP280;34424;52.234;6.500;2023-08-06T13:14:00;100511;;;21.61
48628;BMP280;34424;52.234;6.500;2023-08-06T13:18:59;100513;;;21.83
48628;BMP280;34424;52.234;6.500;2023-08-06T13:23:59;100522.1;;;21.09
48628;BMP280;34424;52.234;6.500;2023-08-06T13:29:00;100523.1;;;20.53
48628;BMP280;34424;52.234;6.500;2023-08-06T13:33:59;100524.8;;;19.83
48628;BMP280;34424;52.234;6.500;2023-08-06T13:38:59;100531.8;;;19.65
48628;BMP280;34424;52.234;6.500;2023-08-06T13:43:59;100537;;;19.5
48628;BMP280;34424;52.234;6.500;2023-08-06T13:48:59;100540.4;;;18.55
48628;BMP280;34424;52.234;6.500;2023-08-06T13:53:59;100527.9;;;18.25
48628;BMP280;34424;52.234;6.500;2023-08-06T13:58:59;100539.6;;;17.08
48628;BMP280;34424;52.234;6.500;2023-08-06T14:03:59;100539.6;;;16.52
48628;BMP280;34424;52.234;6.500;2023-08-06T14:08:59;100547.1;;;16.43
48628;BMP280;34424;52.234;6.500;2023-08-06T14:13:59;100565.8;;;16.78
48628;BMP280;34424;52.234;6.500;2023-08-06T14:18:59;100575.6;;;17.44
48628;BMP280;34424;52.234;6.500;2023-08-06T14:23:59;100578;;;17.55
48628;BMP280;34424;52.234;6.500;2023-08-06T14:29:00;100593.8;;;17.21
48628;BMP280;34424;52.234;6.500;2023-08-06T14:33:59;100600.2;;;16.86
48628;BMP280;34424;52.234;6.500;2023-08-06T14:38:59;100613.1;;;16.34
48628;BMP280;34424;52.234;6.500;2023-08-06T14:43:59;100632.9;;;16.21
48628;BMP280;34424;52.234;6.500;2023-08-06T14:49:00;100645.3;;;15.98
48628;BMP280;34424;52.234;6.500;2023-08-06T14:53:59;100657.7;;;15.79
48628;BMP280;34424;52.234;6.500;2023-08-06T14:59:00;100673.2;;;15.81
48628;BMP280;34424;52.234;6.500;2023-08-06T15:03:59;100682;;;15.73
48628;BMP280;34424;52.234;6.500;2023-08-06T15:09:00;100685;;;15.44
48628;BMP280;34424;52.234;6.500;2023-08-06T15:14:00;100688.6;;;15.17
48628;BMP280;34424;52.234;6.500;2023-08-06T15:19:00;100707.8;;;14.53
48628;BMP280;34424;52.234;6.500;2023-08-06T15:24:00;100729;;;14.1
48628;BMP280;34424;52.234;6.500;2023-08-06T15:29:00;100722.4;;;13.74
48628;BMP280;34424;52.234;6.500;2023-08-06T15:34:00;100728.4;;;13.54
48628;BMP280;34424;52.234;6.500;2023-08-06T15:39:00;100718.8;;;13.45
48628;BMP280;34424;52.234;6.500;2023-08-06T15:44:00;100725.6;;;13.38
48628;BMP280;34424;52.234;6.500;2023-08-06T15:49:00;100730.3;;;13.37
48628;BMP280;34424;52.234;6.500;2023-08-06T15:54:00;100737.4;;;13.37
48628;BMP280;34424;52.234;6.500;2023-08-06T15:59:20;100745.5;;;13.43
48628;BMP280;34424;52.234;6.500;2023-08-06T16:04:00;100747.8;;;13.52
48628;BMP280;34424;52.234;6.500;2023-08-06T16:09:00;100761.5;;;13.58
48628;BMP280;34424;52.234;6.500;2023-08-06T16:14:00;100768.6;;;13.63
48628;BMP280;34424;52.234;6.500;2023-08-06T16:19:00;100774;;;13.69
48628;BMP280;34424;52.234;6.500;2023-08-06T16:24:00;100772.7;;;13.65
48628;BMP280;34424;52.234;6.500;2023-08-06T16:29:00;100779.2;;;13.65
48628;BMP280;34424;52.234;6.500;2023-08-06T16:34:00;100787.3;;;13.7
48628;BMP280;34424;52.234;6.500;2023-08-06T16:39:00;100793.4;;;13.73
48628;BMP280;34424;52.234;6.500;2023-08-06T16:44:00;100804.8;;;13.77
48628;BMP280;34424;52.234;6.500;2023-08-06T16:49:00;100806.6;;;13.78
48628;BMP280;34424;52.234;6.500;2023-08-06T16:54:00;100812.1;;;13.83
48628;BMP280;34424;52.234;6.500;2023-08-06T16:59:00;100817.8;;;13.91
48628;BMP280;34424;52.234;6.500;2023-08-06T17:04:00;100827.7;;;13.96
48628;BMP280;34424;52.234;6.500;2023-08-06T17:09:00;100828.6;;;14.03
48628;BMP280;34424;52.234;6.500;2023-08-06T17:14:00;100834.8;;;14.06
48628;BMP280;34424;52.234;6.500;2023-08-06T17:19:00;100842.2;;;14.05
48628;BMP280;34424;52.234;6.500;2023-08-06T17:24:00;100856.3;;;13.95
48628;BMP280;34424;52.234;6.500;2023-08-06T17:29:00;100856.9;;;13.78
48628;BMP280;34424;52.234;6.500;2023-08-06T17:34:00;100862.2;;;13.75
48628;BMP280;34424;52.234;6.500;2023-08-06T17:39:00;100867.2;;;13.7
48628;BMP280;34424;52.234;6.500;2023-08-06T17:44:00;100870.3;;;13.65
48628;BMP280;34424;52.234;6.500;2023-08-06T17:49:00;100871.2;;;13.61
48628;BMP280;34424;52.234;6.500;2023-08-06T17:54:00;100872.6;;;13.55
48628;BMP280;34424;52.234;6.500;2023-08-06T17:59:00;100874;;;13.49
48628;BMP280;34424;52.234;6.500;2023-08-06T18:04:02;100876.8;;;13.49
48628;BMP280;34424;52.234;6.500;2023-08-06T18:09:00;100881.2;;;13.45
48628;BMP280;34424;52.234;6.500;2023-08-06T18:14:00;100882.5;;;13.41
48628;BMP280;34424;52.234;6.500;2023-08-06T18:19:00;100884.7;;;13.3
48628;BMP280;34424;52.234;6.500;2023-08-06T18:24:00;100886.3;;;13.24
48628;BMP280;34424;52.234;6.500;2023-08-06T18:29:00;100893.2;;;13.21
48628;BMP280;34424;52.234;6.500;2023-08-06T18:34:00;100901.9;;;13.15
48628;BMP280;34424;52.234;6.500;2023-08-06T18:39:00;100903;;;13.07
48628;BMP280;34424;52.234;6.500;2023-08-06T18:44:00;100902.7;;;12.98
48628;BMP280;34424;52.234;6.500;2023-08-06T18:49:00;100907.9;;;12.87
48628;BMP280;34424;52.234;6.500;2023-08-06T18:54:00;100912;;;12.8
48628;BMP280;34424;52.234;6.500;2023-08-06T18:59:00;100912.7;;;12.75
48628;BMP280;34424;52.234;6.500;2023-08-06T19:04:00;100914.7;;;12.7
48628;BMP280;34424;52.234;6.500;2023-08-06T19:09:00;100914;;;12.65
48628;BMP280;34424;52.234;6.500;2023-08-06T19:14:00;100910.1;;;12.64
48628;BMP280;34424;52.234;6.500;2023-08-06T19:19:00;100915.8;;;12.61
48628;BMP280;34424;52.234;6.500;2023-08-06T19:24:00;100922.3;;;12.49
48628;BMP280;34424;52.234;6.500;2023-08-06T19:29:00;100922.5;;;12.35
48628;BMP280;34424;52.234;6.500;2023-08-06T19:34:00;100929;;;12.33
48628;BMP280;34424;52.234;6.500;2023-08-06T19:39:00;100927.7;;;12.36
48628;BMP280;34424;52.234;6.500;2023-08-06T19:44:00;100927;;;12.32
48628;BMP280;34424;52.234;6.500;2023-08-06T19:49:00;100929;;;12.32
48628;BMP280;34424;52.234;6.500;2023-08-06T19:54:00;100927.1;;;12.4
48628;BMP280;34424;52.234;6.500;2023-08-06T19:59:00;100932.5;;;12.45
48628;BMP280;34424;52.234;6.500;2023-08-06T20:04:00;100930.5;;;12.48
48628;BMP280;34424;52.234;6.500;2023-08-06T20:09:00;100931;;;12.49
48628;BMP280;34424;52.234;6.500;2023-08-06T20:14:00;100927.1;;;12.46
48628;BMP280;34424;52.234;6.500;2023-08-06T20:19:00;100925.9;;;12.44
48628;BMP280;34424;52.234;6.500;2023-08-06T20:24:00;100928.5;;;12.35
48628;BMP280;34424;52.234;6.500;2023-08-06T20:29:00;100919.5;;;12.34
48628;BMP280;34424;52.234;6.500;2023-08-06T20:34:00;100917.4;;;12.32
48628;BMP280;34424;52.234;6.500;2023-08-06T20:39:00;100919.6;;;12.28
48628;BMP280;34424;52.234;6.500;2023-08-06T20:44:00;100914.3;;;12.26
48628;BMP280;34424;52.234;6.500;2023-08-06T20:49:00;100912;;;12.27
48628;BMP280;34424;52.234;6.500;2023-08-06T20:54:00;100914.6;;;12.26
48628;BMP280;34424;52.234;6.500;2023-08-06T20:59:00;100915.2;;;12.26
48628;BMP280;34424;52.234;6.500;2023-08-06T21:04:00;100915.7;;;12.32
48628;BMP280;34424;52.234;6.500;2023-08-06T21:09:00;100909.8;;;12.29
48628;BMP280;34424;52.234;6.500;2023-08-06T21:14:00;100918;;;12.38
48628;BMP280;34424;52.234;6.500;2023-08-06T21:19:00;100914.9;;;12.39
48628;BMP280;34424;52.234;6.500;2023-08-06T21:24:00;100915.8;;;12.43
48628;BMP280;34424;52.234;6.500;2023-08-06T21:29:00;100913;;;12.44
48628;BMP280;34424;52.234;6.500;2023-08-06T21:34:00;100911.4;;;12.44
48628;BMP280;34424;52.234;6.500;2023-08-06T21:39:00;100915.1;;;12.44
48628;BMP280;34424;52.234;6.500;2023-08-06T21:44:01;100908.1;;;12.46
48628;BMP280;34424;52.234;6.500;2023-08-06T21:49:00;100907.2;;;12.46
48628;BMP280;34424;52.234;6.500;2023-08-06T21:54:00;100905.5;;;12.48
48628;BMP280;34424;52.234;6.500;2023-08-06T21:59:00;100907.4;;;12.48
48628;BMP280;34424;52.234;6.500;2023-08-06T22:04:00;100904.9;;;12.5
48628;BMP280;34424;52.234;6.500;2023-08-06T22:09:00;100900.6;;;12.53
48628;BMP280;34424;52.234;6.500;2023-08-06T22:14:00;100906.5;;;12.58
48628;BMP280;34424;52.234;6.500;2023-08-06T22:19:00;100916.2;;;12.6
48628;BMP280;34424;52.234;6.500;2023-08-06T22:24:00;100925;;;12.62
48628;BMP280;34424;52.234;6.500;2023-08-06T22:29:00;100924.7;;;12.62
48628;BMP280;34424;52.234;6.500;2023-08-06T22:34:00;100931.4;;;12.67
48628;BMP280;34424;52.234;6.500;2023-08-06T22:39:00;100933.3;;;12.74
48628;BMP280;34424;52.234;6.500;2023-08-06T22:44:00;100938.7;;;12.78
48628;BMP280;34424;52.234;6.500;2023-08-06T22:49:00;100939.8;;;12.8
48628;BMP280;34424;52.234;6.500;2023-08-06T22:54:00;100936;;;12.79
48628;BMP280;34424;52.234;6.500;2023-08-06T22:59:00;100940.2;;;12.74
48628;BMP280;34424;52.234;6.500;2023-08-06T23:04:00;100944.6;;;12.78
48628;BMP280;34424;52.234;6.500;2023-08-06T23:09:00;100948.1;;;12.85
48628;BMP280;34424;52.234;6.500;2023-08-06T23:14:00;100950.8;;;12.91
48628;BMP280;34424;52.234;6.500;2023-08-06T23:19:00;100950.7;;;12.96
48628;BMP280;34424;52.234;6.500;2023-08-06T23:24:00;100954.5;;;12.93
48628;BMP280;34424;52.234;6.500;2023-08-06T23:29:00;100961.9;;;12.85
48628;BMP280;34424;52.234;6.500;2023-08-06T23:34:00;100962.7;;;12.85
48628;BMP280;34424;52.234;6.500;2023-08-06T23:39:00;100962.5;;;12.79
48628;BMP280;34424;52.234;6.500;2023-08-06T23:44:00;100965;;;12.71
48628;BMP280;34424;52.234;6.500;2023-08-06T23:49:00;100962.9;;;12.64
48628;BMP280;34424;52.234;6.500;2023-08-06T23:54:00;100962.9;;;12.6
48628;BMP280;34424;52.234;6.500;2023-08-06T23:59:00;100960.2;;;12.55
